Upstream stations:
Downstream station:
SHEF ID: QUAO2 Spring River near Quapaw, OK
STATION TYPE:
Regulating: Stage = 20.00, Flow = 33676
PRECIP STAGE STAGE(2) RIV-FLOW BAT-LOAD
in ft ft cfs volt
Ccp-Rev Ccp-Rev Ccp-Rev Ccp-Rev Ccp-Rev
(US/Central)
04/04 00:00 0.08 7.46 7.72 1832 12.41
04/04 01:00 0.15 7.49 7.72 1870 12.42
04/04 02:00 0.03 7.48 7.74 1858 12.40
04/04 03:00 0.11 7.48 7.74 1858 12.37
04/04 04:00 0.07 7.49 7.74 1870 12.34
04/04 05:00 0.00 7.48 7.75 1858 12.32
04/04 06:00 0.00 7.50 7.76 1883 12.29
04/04 07:00 0.00 7.51 7.77 1896 12.34
04/04 08:00 0.01 7.49 7.78 1870 12.27
04/04 09:00 0.00 7.52 7.77 1909 12.31
04/04 10:00 0.00 7.51 7.78 1896 12.93
04/04 11:00 0.00 7.51 7.76 1896 13.36
04/04 12:00 0.00 7.54 7.80 1935 13.36
04/04 13:00 0.00 7.55 7.82 1948 12.89
04/04 14:00 0.00 7.58 7.83 1988 12.76
04/04 15:00 0.00 7.57 7.85 1974 12.84
04/04 16:00 0.00 7.60 7.86 2014 12.91
04/04 17:00 0.00 7.59 7.86 2001 12.77
04/04 18:00 0.00 7.59 7.86 2001 12.56
04/04 19:00 0.00 7.60 7.86 2014 12.50
04/04 20:00 0.02 7.58 7.85 1988 12.38
04/04 21:00 0.00 7.60 7.86 2014 12.37
04/04 22:00 0.00 7.59 7.86 2001 12.36
04/04 23:00 0.00 7.59 7.87 2001 12.32